RVF216 PANC-PASM
Flight info
| Callsign | RVF216 |
|---|---|
| Flight time | 1h 35m |
| Altitude | 20000 |
| Route | SQA |
| Aircraft | DH8A/M-SDFGR/S |
Departure
| Time | 2026-04-13 20:46 |
|---|---|
| Airport | Ted Stevens Anchorage International Airport (PANC) |
Arrival
| Time | 2026-04-13 22:21 |
|---|---|
| Airport | St Mary's Airport (PASM) |
| Time | Latitude | Longitude | Altitude | Speed | Heading |
|---|---|---|---|---|---|
| 2026-04-13 20:43 | 61.17123 | -149.99246 | 160 ft | 2 kts | 270° |
| 2026-04-13 20:43 | 61.17123 | -149.99251 | 160 ft | 0 kts | 270° |
| 2026-04-13 20:44 | 61.17124 | -149.99310 | 160 ft | 7 kts | 270° |
| 2026-04-13 20:44 | 61.17125 | -149.99463 | 160 ft | 8 kts | 273° |
| 2026-04-13 20:44 | 61.17148 | -149.99550 | 160 ft | 6 kts | 265° |
| 2026-04-13 20:44 | 61.17125 | -149.99681 | 160 ft | 12 kts | 261° |
| 2026-04-13 20:45 | 61.17126 | -149.99843 | 160 ft | 9 kts | 292° |
| 2026-04-13 20:45 | 61.17146 | -149.99875 | 160 ft | 0 kts | 344° |
| 2026-04-13 20:45 | 61.17183 | -149.99893 | 161 ft | 34 kts | 347° |
| 2026-04-13 20:46 | 61.18565 | -150.00626 | 361 ft | 136 kts | 348° |
| 2026-04-13 20:46 | 61.19526 | -150.01059 | 849 ft | 144 kts | 346° |
| 2026-04-13 20:46 | 61.20378 | -150.01849 | 1483 ft | 129 kts | 329° |
| 2026-04-13 20:46 | 61.21037 | -150.03058 | 1917 ft | 128 kts | 313° |
| 2026-04-13 20:47 | 61.21522 | -150.04723 | 2071 ft | 148 kts | 297° |
| 2026-04-13 20:47 | 61.21855 | -150.06906 | 2271 ft | 162 kts | 288° |
| 2026-04-13 20:47 | 61.22051 | -150.09235 | 2584 ft | 168 kts | 278° |
| 2026-04-13 20:47 | 61.22058 | -150.11688 | 2954 ft | 170 kts | 275° |
| 2026-04-13 20:48 | 61.22035 | -150.14153 | 3321 ft | 171 kts | 275° |
| 2026-04-13 20:48 | 61.21994 | -150.16635 | 3673 ft | 172 kts | 274° |
| 2026-04-13 20:48 | 61.21946 | -150.19128 | 4021 ft | 174 kts | 274° |
| 2026-04-13 20:48 | 61.21908 | -150.21632 | 4378 ft | 174 kts | 277° |
| 2026-04-13 20:49 | 61.21910 | -150.24132 | 4734 ft | 175 kts | 277° |
| 2026-04-13 20:49 | 61.21907 | -150.26646 | 5086 ft | 176 kts | 278° |
| 2026-04-13 20:49 | 61.21903 | -150.29210 | 5445 ft | 176 kts | 278° |
| 2026-04-13 20:49 | 61.21896 | -150.31749 | 5795 ft | 178 kts | 278° |
| 2026-04-13 20:50 | 61.21888 | -150.34297 | 6146 ft | 178 kts | 278° |
| 2026-04-13 20:50 | 61.21878 | -150.36856 | 6501 ft | 179 kts | 278° |
| 2026-04-13 20:50 | 61.21870 | -150.39458 | 6851 ft | 180 kts | 278° |
| 2026-04-13 20:50 | 61.21863 | -150.42052 | 7188 ft | 182 kts | 278° |
| 2026-04-13 20:51 | 61.21853 | -150.44664 | 7538 ft | 183 kts | 277° |
| 2026-04-13 20:51 | 61.21843 | -150.47304 | 7894 ft | 184 kts | 277° |
| 2026-04-13 20:51 | 61.21830 | -150.49977 | 8253 ft | 185 kts | 277° |
| 2026-04-13 20:51 | 61.21818 | -150.52657 | 8629 ft | 186 kts | 277° |
| 2026-04-13 20:52 | 61.21806 | -150.55335 | 8987 ft | 188 kts | 276° |
| 2026-04-13 20:52 | 61.21792 | -150.58025 | 9340 ft | 189 kts | 276° |
| 2026-04-13 20:52 | 61.21778 | -150.60750 | 9690 ft | 190 kts | 276° |
| 2026-04-13 20:52 | 61.21764 | -150.63519 | 10039 ft | 191 kts | 276° |
| 2026-04-13 20:53 | 61.21750 | -150.66260 | 10357 ft | 193 kts | 275° |
| 2026-04-13 20:53 | 61.21734 | -150.69054 | 10713 ft | 195 kts | 275° |
| 2026-04-13 20:53 | 61.21717 | -150.71872 | 11067 ft | 196 kts | 275° |
| 2026-04-13 20:53 | 61.21699 | -150.74693 | 11399 ft | 197 kts | 275° |
| 2026-04-13 20:54 | 61.21682 | -150.77544 | 11739 ft | 198 kts | 275° |
| 2026-04-13 20:54 | 61.21663 | -150.80397 | 12053 ft | 200 kts | 275° |
| 2026-04-13 20:54 | 61.21643 | -150.83279 | 12409 ft | 201 kts | 275° |
| 2026-04-13 20:54 | 61.21623 | -150.86174 | 12742 ft | 202 kts | 275° |
| 2026-04-13 20:55 | 61.21602 | -150.89075 | 13089 ft | 202 kts | 275° |
| 2026-04-13 20:55 | 61.21581 | -150.92017 | 13437 ft | 203 kts | 275° |
| 2026-04-13 20:55 | 61.21559 | -150.94925 | 13778 ft | 204 kts | 275° |
| 2026-04-13 20:55 | 61.21535 | -150.97896 | 14131 ft | 205 kts | 274° |
| 2026-04-13 20:56 | 61.21515 | -151.00825 | 14431 ft | 207 kts | 275° |
| 2026-04-13 20:56 | 61.21497 | -151.03812 | 14727 ft | 208 kts | 274° |
| 2026-04-13 20:56 | 61.21475 | -151.06824 | 15010 ft | 209 kts | 274° |
| 2026-04-13 20:56 | 61.21449 | -151.09854 | 15300 ft | 210 kts | 274° |
| 2026-04-13 20:57 | 61.21421 | -151.12872 | 15624 ft | 211 kts | 275° |
| 2026-04-13 20:57 | 61.21392 | -151.15947 | 15933 ft | 211 kts | 274° |
| 2026-04-13 20:57 | 61.21363 | -151.18930 | 16284 ft | 208 kts | 274° |
| 2026-04-13 20:57 | 61.21335 | -151.21930 | 16616 ft | 207 kts | 275° |
| 2026-04-13 20:58 | 61.21305 | -151.24948 | 16924 ft | 207 kts | 275° |
| 2026-04-13 20:58 | 61.21277 | -151.27922 | 17203 ft | 208 kts | 275° |
| 2026-04-13 20:58 | 61.21247 | -151.30907 | 17464 ft | 209 kts | 275° |
| 2026-04-13 20:58 | 61.21217 | -151.33928 | 17734 ft | 210 kts | 275° |
| 2026-04-13 20:59 | 61.21185 | -151.36955 | 18026 ft | 209 kts | 275° |
| 2026-04-13 20:59 | 61.21151 | -151.39958 | 18341 ft | 207 kts | 275° |
| 2026-04-13 20:59 | 61.21118 | -151.42944 | 18617 ft | 207 kts | 275° |
| 2026-04-13 20:59 | 61.21085 | -151.45943 | 18868 ft | 208 kts | 275° |
| 2026-04-13 21:00 | 61.21050 | -151.48927 | 19114 ft | 210 kts | 275° |
| 2026-04-13 21:00 | 61.21015 | -151.51938 | 19367 ft | 210 kts | 275° |
| 2026-04-13 21:00 | 61.20977 | -151.54997 | 19608 ft | 212 kts | 275° |
| 2026-04-13 21:00 | 61.20943 | -151.58054 | 19720 ft | 219 kts | 275° |
| 2026-04-13 21:01 | 61.20905 | -151.61343 | 19723 ft | 231 kts | 275° |
| 2026-04-13 21:01 | 61.20863 | -151.64743 | 19714 ft | 242 kts | 275° |
| 2026-04-13 21:01 | 61.20817 | -151.68254 | 19717 ft | 251 kts | 274° |
| 2026-04-13 21:01 | 61.20767 | -151.71942 | 19712 ft | 259 kts | 274° |
| 2026-04-13 21:02 | 61.20716 | -151.75734 | 19707 ft | 266 kts | 273° |
| 2026-04-13 21:02 | 61.20662 | -151.79593 | 19710 ft | 271 kts | 273° |
| 2026-04-13 21:02 | 61.20606 | -151.83554 | 19711 ft | 276 kts | 273° |
| 2026-04-13 21:02 | 61.20549 | -151.87547 | 19716 ft | 280 kts | 273° |
| 2026-04-13 21:03 | 61.20489 | -151.91597 | 19718 ft | 284 kts | 273° |
| 2026-04-13 21:03 | 61.20428 | -151.95703 | 19718 ft | 287 kts | 273° |
| 2026-04-13 21:03 | 61.20364 | -151.99904 | 19717 ft | 290 kts | 272° |
| 2026-04-13 21:03 | 61.20298 | -152.04077 | 19724 ft | 292 kts | 273° |
| 2026-04-13 21:04 | 61.20232 | -152.08247 | 19699 ft | 294 kts | 272° |
| 2026-04-13 21:04 | 61.20164 | -152.12468 | 19696 ft | 295 kts | 272° |
| 2026-04-13 21:04 | 61.20094 | -152.16731 | 19700 ft | 296 kts | 272° |
| 2026-04-13 21:04 | 61.20021 | -152.21007 | 19695 ft | 297 kts | 272° |
| 2026-04-13 21:05 | 61.19950 | -152.25272 | 19680 ft | 298 kts | 272° |
| 2026-04-13 21:05 | 61.19874 | -152.29552 | 19678 ft | 299 kts | 272° |
| 2026-04-13 21:05 | 61.19799 | -152.33861 | 19676 ft | 299 kts | 272° |
| 2026-04-13 21:05 | 61.19720 | -152.38141 | 19669 ft | 300 kts | 272° |
| 2026-04-13 21:06 | 61.19643 | -152.42444 | 19671 ft | 300 kts | 272° |
| 2026-04-13 21:06 | 61.19561 | -152.46799 | 19666 ft | 300 kts | 272° |
| 2026-04-13 21:06 | 61.19480 | -152.51105 | 19653 ft | 301 kts | 272° |
| 2026-04-13 21:06 | 61.19394 | -152.55432 | 19651 ft | 301 kts | 272° |
| 2026-04-13 21:07 | 61.19310 | -152.59796 | 19660 ft | 301 kts | 272° |
| 2026-04-13 21:07 | 61.19224 | -152.64087 | 19662 ft | 301 kts | 272° |
| 2026-04-13 21:07 | 61.19136 | -152.68439 | 19669 ft | 301 kts | 271° |
| 2026-04-13 21:07 | 61.19047 | -152.72778 | 19679 ft | 301 kts | 271° |
| 2026-04-13 21:08 | 61.18955 | -152.77135 | 19680 ft | 301 kts | 271° |
| 2026-04-13 21:08 | 61.18863 | -152.81445 | 19677 ft | 301 kts | 271° |
| 2026-04-13 21:08 | 61.18770 | -152.85774 | 19683 ft | 301 kts | 271° |
| 2026-04-13 21:08 | 61.18677 | -152.90076 | 19685 ft | 301 kts | 271° |
| 2026-04-13 21:09 | 61.18581 | -152.94409 | 19684 ft | 301 kts | 271° |
| 2026-04-13 21:09 | 61.18502 | -152.97885 | 19681 ft | 301 kts | 271° |
| 2026-04-13 21:09 | 61.18404 | -153.02223 | 19683 ft | 302 kts | 271° |
| 2026-04-13 21:09 | 61.18304 | -153.06538 | 19676 ft | 302 kts | 271° |
| 2026-04-13 21:10 | 61.18202 | -153.10893 | 19670 ft | 302 kts | 271° |
| 2026-04-13 21:10 | 61.18098 | -153.15231 | 19666 ft | 302 kts | 271° |
| 2026-04-13 21:10 | 61.17993 | -153.19603 | 19662 ft | 302 kts | 271° |
| 2026-04-13 21:10 | 61.17888 | -153.23918 | 19658 ft | 302 kts | 271° |
| 2026-04-13 21:11 | 61.17781 | -153.28239 | 19652 ft | 302 kts | 271° |
| 2026-04-13 21:11 | 61.17672 | -153.32562 | 19655 ft | 302 kts | 271° |
| 2026-04-13 21:11 | 61.17563 | -153.36882 | 19651 ft | 301 kts | 271° |
| 2026-04-13 21:11 | 61.17452 | -153.41202 | 19644 ft | 301 kts | 271° |
| 2026-04-13 21:12 | 61.17341 | -153.45534 | 19637 ft | 301 kts | 271° |
| 2026-04-13 21:12 | 61.17227 | -153.49887 | 19634 ft | 301 kts | 271° |
| 2026-04-13 21:12 | 61.17112 | -153.54181 | 19651 ft | 301 kts | 271° |
| 2026-04-13 21:12 | 61.16995 | -153.58514 | 19668 ft | 301 kts | 271° |
| 2026-04-13 21:13 | 61.16877 | -153.62872 | 19692 ft | 300 kts | 271° |
| 2026-04-13 21:13 | 61.16757 | -153.67177 | 19718 ft | 300 kts | 270° |
| 2026-04-13 21:13 | 61.16636 | -153.71503 | 19741 ft | 300 kts | 270° |
| 2026-04-13 21:13 | 61.16516 | -153.75772 | 19762 ft | 299 kts | 271° |
| 2026-04-13 21:14 | 61.16394 | -153.80051 | 19776 ft | 299 kts | 271° |
| 2026-04-13 21:14 | 61.16270 | -153.84341 | 19761 ft | 299 kts | 270° |
| 2026-04-13 21:14 | 61.16145 | -153.88634 | 19757 ft | 299 kts | 270° |
| 2026-04-13 21:14 | 61.16018 | -153.92949 | 19777 ft | 299 kts | 270° |
| 2026-04-13 21:15 | 61.15890 | -153.97221 | 19764 ft | 300 kts | 271° |
| 2026-04-13 21:15 | 61.15762 | -154.01502 | 19754 ft | 299 kts | 271° |
| 2026-04-13 21:15 | 61.15630 | -154.05818 | 19757 ft | 299 kts | 270° |
| 2026-04-13 21:15 | 61.15499 | -154.10084 | 19741 ft | 300 kts | 271° |
| 2026-04-13 21:16 | 61.15367 | -154.14363 | 19740 ft | 299 kts | 270° |
| 2026-04-13 21:16 | 61.15231 | -154.18669 | 19740 ft | 299 kts | 270° |
| 2026-04-13 21:16 | 61.15095 | -154.22961 | 19721 ft | 300 kts | 270° |
| 2026-04-13 21:16 | 61.14957 | -154.27271 | 19729 ft | 300 kts | 270° |
| 2026-04-13 21:17 | 61.14817 | -154.31573 | 19743 ft | 299 kts | 270° |
| 2026-04-13 21:17 | 61.14677 | -154.35855 | 19761 ft | 298 kts | 270° |
| 2026-04-13 21:17 | 61.14537 | -154.40100 | 19780 ft | 298 kts | 270° |
| 2026-04-13 21:17 | 61.14395 | -154.44374 | 19789 ft | 297 kts | 270° |
| 2026-04-13 21:18 | 61.14251 | -154.48662 | 19805 ft | 297 kts | 270° |
| 2026-04-13 21:18 | 61.14108 | -154.52902 | 19812 ft | 297 kts | 270° |
| 2026-04-13 21:18 | 61.13963 | -154.57114 | 19810 ft | 297 kts | 270° |
| 2026-04-13 21:18 | 61.13815 | -154.61375 | 19818 ft | 297 kts | 270° |
| 2026-04-13 21:19 | 61.13666 | -154.65649 | 19821 ft | 295 kts | 269° |
| 2026-04-13 21:19 | 61.13517 | -154.69844 | 19825 ft | 293 kts | 269° |
| 2026-04-13 21:19 | 61.13367 | -154.74039 | 19832 ft | 292 kts | 269° |
| 2026-04-13 21:19 | 61.13218 | -154.78194 | 19837 ft | 290 kts | 269° |
| 2026-04-13 21:20 | 61.13067 | -154.82396 | 19841 ft | 289 kts | 269° |
| 2026-04-13 21:20 | 61.12917 | -154.86494 | 19845 ft | 288 kts | 269° |
| 2026-04-13 21:20 | 61.12767 | -154.90628 | 19849 ft | 287 kts | 269° |
| 2026-04-13 21:20 | 61.12614 | -154.94722 | 19848 ft | 287 kts | 269° |
| 2026-04-13 21:21 | 61.12460 | -154.98837 | 19854 ft | 286 kts | 269° |
| 2026-04-13 21:21 | 61.12305 | -155.02959 | 19853 ft | 286 kts | 269° |
| 2026-04-13 21:21 | 61.12151 | -155.07019 | 19856 ft | 285 kts | 269° |
| 2026-04-13 21:21 | 61.11995 | -155.11081 | 19859 ft | 285 kts | 269° |
| 2026-04-13 21:22 | 61.11838 | -155.15147 | 19868 ft | 284 kts | 269° |
| 2026-04-13 21:22 | 61.11680 | -155.19211 | 19876 ft | 284 kts | 269° |
| 2026-04-13 21:22 | 61.11518 | -155.23326 | 19879 ft | 284 kts | 269° |
| 2026-04-13 21:22 | 61.11357 | -155.27385 | 19878 ft | 284 kts | 269° |
| 2026-04-13 21:23 | 61.11198 | -155.31409 | 19881 ft | 284 kts | 269° |
| 2026-04-13 21:23 | 61.11033 | -155.35510 | 19881 ft | 284 kts | 269° |
| 2026-04-13 21:23 | 61.10870 | -155.39539 | 19883 ft | 284 kts | 269° |
| 2026-04-13 21:23 | 61.10705 | -155.43619 | 19883 ft | 284 kts | 269° |
| 2026-04-13 21:24 | 61.10537 | -155.47699 | 19885 ft | 284 kts | 269° |
| 2026-04-13 21:24 | 61.10369 | -155.51755 | 19884 ft | 284 kts | 269° |
| 2026-04-13 21:24 | 61.10199 | -155.55815 | 19881 ft | 284 kts | 269° |
| 2026-04-13 21:24 | 61.10030 | -155.59863 | 19889 ft | 284 kts | 269° |
| 2026-04-13 21:25 | 61.09929 | -155.63951 | 19873 ft | 282 kts | 278° |
| 2026-04-13 21:25 | 61.10471 | -155.67755 | 19903 ft | 277 kts | 292° |
| 2026-04-13 21:25 | 61.11106 | -155.71533 | 19893 ft | 278 kts | 291° |
| 2026-04-13 21:25 | 61.11727 | -155.75313 | 19897 ft | 278 kts | 291° |
| 2026-04-13 21:26 | 61.12336 | -155.79106 | 19905 ft | 278 kts | 291° |
| 2026-04-13 21:26 | 61.12940 | -155.82919 | 19908 ft | 278 kts | 290° |
| 2026-04-13 21:26 | 61.13535 | -155.86716 | 19913 ft | 278 kts | 290° |
| 2026-04-13 21:26 | 61.14131 | -155.90538 | 19919 ft | 278 kts | 290° |
| 2026-04-13 21:27 | 61.14722 | -155.94322 | 19917 ft | 279 kts | 290° |
| 2026-04-13 21:27 | 61.15310 | -155.98106 | 19925 ft | 279 kts | 290° |
| 2026-04-13 21:27 | 61.15908 | -156.01964 | 19923 ft | 279 kts | 290° |
| 2026-04-13 21:27 | 61.16502 | -156.05803 | 19923 ft | 279 kts | 290° |
| 2026-04-13 21:28 | 61.17090 | -156.09615 | 19926 ft | 279 kts | 290° |
| 2026-04-13 21:28 | 61.17681 | -156.13455 | 19929 ft | 279 kts | 290° |
| 2026-04-13 21:28 | 61.18266 | -156.17264 | 19934 ft | 279 kts | 290° |
| 2026-04-13 21:28 | 61.18853 | -156.21092 | 19936 ft | 279 kts | 290° |
| 2026-04-13 21:29 | 61.19443 | -156.24959 | 19938 ft | 279 kts | 290° |
| 2026-04-13 21:29 | 61.20020 | -156.28738 | 19942 ft | 279 kts | 290° |
| 2026-04-13 21:29 | 61.20610 | -156.32616 | 19942 ft | 279 kts | 290° |
| 2026-04-13 21:29 | 61.21193 | -156.36447 | 19942 ft | 279 kts | 290° |
| 2026-04-13 21:30 | 61.21768 | -156.40237 | 19944 ft | 279 kts | 290° |
| 2026-04-13 21:30 | 61.22355 | -156.44118 | 19952 ft | 279 kts | 290° |
| 2026-04-13 21:30 | 61.22931 | -156.47935 | 19951 ft | 279 kts | 290° |
| 2026-04-13 21:30 | 61.23507 | -156.51762 | 19954 ft | 279 kts | 290° |
| 2026-04-13 21:31 | 61.24083 | -156.55591 | 19956 ft | 278 kts | 290° |
| 2026-04-13 21:31 | 61.24656 | -156.59416 | 19959 ft | 278 kts | 290° |
| 2026-04-13 21:31 | 61.25229 | -156.63246 | 19960 ft | 278 kts | 290° |
| 2026-04-13 21:31 | 61.25800 | -156.67081 | 19964 ft | 278 kts | 289° |
| 2026-04-13 21:32 | 61.26366 | -156.70874 | 19967 ft | 278 kts | 289° |
| 2026-04-13 21:32 | 61.26943 | -156.74753 | 19967 ft | 278 kts | 289° |
| 2026-04-13 21:32 | 61.27512 | -156.78597 | 19970 ft | 278 kts | 289° |
| 2026-04-13 21:33 | 61.28088 | -156.82489 | 19971 ft | 278 kts | 289° |
| 2026-04-13 21:33 | 61.28650 | -156.86307 | 19974 ft | 278 kts | 289° |
| 2026-04-13 21:33 | 61.29217 | -156.90157 | 19976 ft | 278 kts | 289° |
| 2026-04-13 21:34 | 61.30347 | -156.97859 | 19974 ft | 278 kts | 289° |
| 2026-04-13 21:34 | 61.30911 | -157.01712 | 19976 ft | 278 kts | 289° |
| 2026-04-13 21:34 | 61.31474 | -157.05576 | 19974 ft | 278 kts | 289° |
| 2026-04-13 21:34 | 61.32033 | -157.09412 | 19977 ft | 278 kts | 289° |
| 2026-04-13 21:35 | 61.32587 | -157.13231 | 19977 ft | 278 kts | 289° |
| 2026-04-13 21:35 | 61.33144 | -157.17068 | 19976 ft | 278 kts | 289° |
| 2026-04-13 21:35 | 61.34256 | -157.24774 | 19977 ft | 277 kts | 289° |
| 2026-04-13 21:36 | 61.34808 | -157.28610 | 19972 ft | 277 kts | 289° |
| 2026-04-13 21:36 | 61.35354 | -157.32423 | 19973 ft | 277 kts | 289° |
| 2026-04-13 21:36 | 61.35901 | -157.36243 | 19970 ft | 276 kts | 289° |
| 2026-04-13 21:36 | 61.36450 | -157.40085 | 19968 ft | 276 kts | 289° |
| 2026-04-13 21:37 | 61.36999 | -157.43932 | 19965 ft | 276 kts | 289° |
| 2026-04-13 21:37 | 61.37543 | -157.47760 | 19969 ft | 276 kts | 289° |
| 2026-04-13 21:37 | 61.38088 | -157.51594 | 19965 ft | 276 kts | 289° |
| 2026-04-13 21:37 | 61.38625 | -157.55396 | 19968 ft | 275 kts | 289° |
| 2026-04-13 21:38 | 61.39162 | -157.59195 | 19969 ft | 275 kts | 289° |
| 2026-04-13 21:38 | 61.39707 | -157.63060 | 19971 ft | 275 kts | 289° |
| 2026-04-13 21:38 | 61.40240 | -157.66850 | 19974 ft | 274 kts | 288° |
| 2026-04-13 21:38 | 61.40781 | -157.70712 | 19976 ft | 274 kts | 288° |
| 2026-04-13 21:39 | 61.41320 | -157.74568 | 19977 ft | 274 kts | 288° |
| 2026-04-13 21:39 | 61.41855 | -157.78400 | 19979 ft | 274 kts | 288° |
| 2026-04-13 21:39 | 61.42388 | -157.82230 | 19975 ft | 275 kts | 288° |
| 2026-04-13 21:39 | 61.42916 | -157.86032 | 19973 ft | 275 kts | 288° |
| 2026-04-13 21:40 | 61.43449 | -157.89876 | 19971 ft | 275 kts | 288° |
| 2026-04-13 21:40 | 61.43977 | -157.93694 | 19971 ft | 275 kts | 288° |
| 2026-04-13 21:40 | 61.44511 | -157.97569 | 19970 ft | 275 kts | 288° |
| 2026-04-13 21:40 | 61.45036 | -158.01379 | 19969 ft | 275 kts | 288° |
| 2026-04-13 21:41 | 61.45565 | -158.05237 | 19974 ft | 275 kts | 288° |
| 2026-04-13 21:41 | 61.46095 | -158.09105 | 19979 ft | 275 kts | 288° |
| 2026-04-13 21:41 | 61.46615 | -158.12911 | 19979 ft | 275 kts | 288° |
| 2026-04-13 21:41 | 61.47140 | -158.16762 | 19985 ft | 274 kts | 288° |
| 2026-04-13 21:42 | 61.47660 | -158.20593 | 19988 ft | 274 kts | 288° |
| 2026-04-13 21:42 | 61.48181 | -158.24442 | 19991 ft | 274 kts | 288° |
| 2026-04-13 21:42 | 61.48696 | -158.28244 | 19997 ft | 274 kts | 288° |
| 2026-04-13 21:42 | 61.49212 | -158.32071 | 20001 ft | 273 kts | 288° |
| 2026-04-13 21:43 | 61.49729 | -158.35901 | 20007 ft | 273 kts | 288° |
| 2026-04-13 21:43 | 61.50242 | -158.39719 | 20017 ft | 273 kts | 288° |
| 2026-04-13 21:43 | 61.50758 | -158.43564 | 20022 ft | 272 kts | 288° |
| 2026-04-13 21:43 | 61.51265 | -158.47354 | 20026 ft | 272 kts | 288° |
| 2026-04-13 21:44 | 61.51775 | -158.51180 | 20028 ft | 272 kts | 288° |
| 2026-04-13 21:44 | 61.52281 | -158.54979 | 20032 ft | 272 kts | 288° |
| 2026-04-13 21:44 | 61.52788 | -158.58809 | 20035 ft | 272 kts | 288° |
| 2026-04-13 21:44 | 61.53295 | -158.62631 | 20036 ft | 272 kts | 288° |
| 2026-04-13 21:45 | 61.53796 | -158.66432 | 20037 ft | 272 kts | 287° |
| 2026-04-13 21:45 | 61.54298 | -158.70241 | 20036 ft | 272 kts | 287° |
| 2026-04-13 21:45 | 61.54808 | -158.74127 | 20039 ft | 272 kts | 287° |
| 2026-04-13 21:45 | 61.55311 | -158.77959 | 20037 ft | 272 kts | 287° |
| 2026-04-13 21:46 | 61.55807 | -158.81746 | 20041 ft | 272 kts | 287° |
| 2026-04-13 21:46 | 61.56305 | -158.85570 | 20042 ft | 272 kts | 287° |
| 2026-04-13 21:46 | 61.56803 | -158.89391 | 20045 ft | 272 kts | 287° |
| 2026-04-13 21:46 | 61.57301 | -158.93225 | 20042 ft | 272 kts | 287° |
| 2026-04-13 21:47 | 61.57796 | -158.97052 | 20049 ft | 272 kts | 287° |
| 2026-04-13 21:47 | 61.58290 | -159.00871 | 20048 ft | 272 kts | 287° |
| 2026-04-13 21:47 | 61.58787 | -159.04729 | 20047 ft | 272 kts | 287° |
| 2026-04-13 21:47 | 61.59273 | -159.08513 | 20047 ft | 271 kts | 287° |
| 2026-04-13 21:48 | 61.59765 | -159.12350 | 20055 ft | 271 kts | 287° |
| 2026-04-13 21:48 | 61.60250 | -159.16139 | 20057 ft | 271 kts | 287° |
| 2026-04-13 21:48 | 61.60741 | -159.19984 | 20055 ft | 271 kts | 287° |
| 2026-04-13 21:48 | 61.61227 | -159.23816 | 20046 ft | 270 kts | 287° |
| 2026-04-13 21:49 | 61.61709 | -159.27609 | 20063 ft | 270 kts | 287° |
| 2026-04-13 21:49 | 61.62190 | -159.31404 | 20049 ft | 270 kts | 287° |
| 2026-04-13 21:49 | 61.62670 | -159.35205 | 20061 ft | 270 kts | 287° |
| 2026-04-13 21:49 | 61.63148 | -159.38997 | 20055 ft | 269 kts | 287° |
| 2026-04-13 21:50 | 61.63623 | -159.42776 | 20056 ft | 269 kts | 287° |
| 2026-04-13 21:50 | 61.64100 | -159.46579 | 20058 ft | 269 kts | 287° |
| 2026-04-13 21:50 | 61.64579 | -159.50406 | 20063 ft | 269 kts | 287° |
| 2026-04-13 21:50 | 61.65049 | -159.54176 | 20056 ft | 269 kts | 287° |
| 2026-04-13 21:51 | 61.65525 | -159.58011 | 20063 ft | 269 kts | 287° |
| 2026-04-13 21:51 | 61.65997 | -159.61815 | 20054 ft | 269 kts | 287° |
| 2026-04-13 21:51 | 61.66468 | -159.65611 | 20075 ft | 268 kts | 287° |
| 2026-04-13 21:51 | 61.66934 | -159.69398 | 20077 ft | 269 kts | 287° |
| 2026-04-13 21:52 | 61.67407 | -159.73228 | 20073 ft | 269 kts | 287° |
| 2026-04-13 21:52 | 61.67880 | -159.77077 | 20073 ft | 269 kts | 287° |
| 2026-04-13 21:52 | 61.68346 | -159.80881 | 20070 ft | 269 kts | 287° |
| 2026-04-13 21:52 | 61.68809 | -159.84668 | 20078 ft | 269 kts | 287° |
| 2026-04-13 21:53 | 61.69272 | -159.88467 | 20069 ft | 269 kts | 287° |
| 2026-04-13 21:53 | 61.69737 | -159.92300 | 20076 ft | 269 kts | 287° |
| 2026-04-13 21:53 | 61.70201 | -159.96129 | 20068 ft | 269 kts | 287° |
| 2026-04-13 21:53 | 61.70819 | -159.99818 | 20063 ft | 267 kts | 297° |
| 2026-04-13 21:54 | 61.71583 | -160.03326 | 20071 ft | 266 kts | 296° |
| 2026-04-13 21:54 | 61.72361 | -160.06902 | 20063 ft | 266 kts | 297° |
| 2026-04-13 21:54 | 61.73129 | -160.10428 | 20062 ft | 266 kts | 297° |
| 2026-04-13 21:54 | 61.73902 | -160.13986 | 20067 ft | 266 kts | 297° |
| 2026-04-13 21:55 | 61.74672 | -160.17529 | 20062 ft | 266 kts | 297° |
| 2026-04-13 21:55 | 61.75435 | -160.21057 | 20062 ft | 266 kts | 297° |
| 2026-04-13 21:55 | 61.76201 | -160.24596 | 20062 ft | 266 kts | 297° |
| 2026-04-13 21:55 | 61.76968 | -160.28152 | 20062 ft | 266 kts | 297° |
| 2026-04-13 21:56 | 61.77739 | -160.31734 | 20059 ft | 265 kts | 297° |
| 2026-04-13 21:56 | 61.78500 | -160.35278 | 20064 ft | 265 kts | 297° |
| 2026-04-13 21:56 | 61.79260 | -160.38814 | 20067 ft | 265 kts | 297° |
| 2026-04-13 21:56 | 61.80020 | -160.42355 | 20069 ft | 265 kts | 297° |
| 2026-04-13 21:57 | 61.80771 | -160.45868 | 20063 ft | 265 kts | 297° |
| 2026-04-13 21:57 | 61.81527 | -160.49405 | 20070 ft | 264 kts | 297° |
| 2026-04-13 21:57 | 61.82287 | -160.52965 | 20073 ft | 264 kts | 297° |
| 2026-04-13 21:57 | 61.83039 | -160.56499 | 20072 ft | 264 kts | 297° |
| 2026-04-13 21:58 | 61.83790 | -160.60033 | 20076 ft | 264 kts | 297° |
| 2026-04-13 21:58 | 61.84546 | -160.63599 | 20072 ft | 264 kts | 297° |
| 2026-04-13 21:58 | 61.85292 | -160.67123 | 20075 ft | 264 kts | 296° |
| 2026-04-13 21:58 | 61.86046 | -160.70689 | 20078 ft | 264 kts | 296° |
| 2026-04-13 21:59 | 61.86805 | -160.74280 | 20077 ft | 264 kts | 296° |
| 2026-04-13 21:59 | 61.87557 | -160.77844 | 20073 ft | 264 kts | 296° |
| 2026-04-13 21:59 | 61.88305 | -160.81403 | 20069 ft | 264 kts | 296° |
| 2026-04-13 21:59 | 61.89049 | -160.84944 | 20070 ft | 264 kts | 296° |
| 2026-04-13 22:00 | 61.89794 | -160.88498 | 20072 ft | 264 kts | 296° |
| 2026-04-13 22:00 | 61.90537 | -160.92046 | 20063 ft | 264 kts | 296° |
| 2026-04-13 22:00 | 61.91271 | -160.95557 | 20062 ft | 264 kts | 296° |
| 2026-04-13 22:00 | 61.92019 | -160.99144 | 20061 ft | 264 kts | 296° |
| 2026-04-13 22:01 | 61.92760 | -161.02705 | 20062 ft | 264 kts | 296° |
| 2026-04-13 22:01 | 61.93496 | -161.06253 | 20064 ft | 264 kts | 296° |
| 2026-04-13 22:01 | 61.94233 | -161.09801 | 20058 ft | 264 kts | 296° |
| 2026-04-13 22:01 | 61.94973 | -161.13376 | 20059 ft | 264 kts | 296° |
| 2026-04-13 22:02 | 61.95706 | -161.16913 | 20057 ft | 264 kts | 296° |
| 2026-04-13 22:02 | 61.96441 | -161.20477 | 20062 ft | 263 kts | 296° |
| 2026-04-13 22:02 | 61.97174 | -161.24036 | 20059 ft | 263 kts | 296° |
| 2026-04-13 22:02 | 61.97916 | -161.27638 | 20067 ft | 263 kts | 296° |
| 2026-04-13 22:03 | 61.98642 | -161.31175 | 20062 ft | 263 kts | 296° |
| 2026-04-13 22:03 | 61.99369 | -161.34717 | 20065 ft | 263 kts | 296° |
| 2026-04-13 22:03 | 62.00103 | -161.38300 | 20063 ft | 263 kts | 296° |
| 2026-04-13 22:03 | 62.00831 | -161.41864 | 20068 ft | 263 kts | 296° |
| 2026-04-13 22:04 | 62.01557 | -161.45428 | 20063 ft | 263 kts | 296° |
| 2026-04-13 22:04 | 62.02286 | -161.49016 | 20074 ft | 263 kts | 296° |
| 2026-04-13 22:04 | 62.03006 | -161.52556 | 20068 ft | 263 kts | 296° |
| 2026-04-13 22:04 | 62.03737 | -161.56160 | 20070 ft | 263 kts | 296° |
| 2026-04-13 22:05 | 62.04454 | -161.59701 | 20068 ft | 263 kts | 296° |
| 2026-04-13 22:05 | 62.05172 | -161.63258 | 20083 ft | 262 kts | 296° |
| 2026-04-13 22:05 | 62.05896 | -161.66840 | 20078 ft | 262 kts | 296° |
| 2026-04-13 22:05 | 62.06622 | -161.70439 | 19879 ft | 270 kts | 296° |
| 2026-04-13 22:06 | 62.07395 | -161.74268 | 19577 ft | 278 kts | 295° |
| 2026-04-13 22:06 | 62.08157 | -161.78069 | 19273 ft | 279 kts | 295° |
| 2026-04-13 22:06 | 62.08909 | -161.81830 | 18941 ft | 273 kts | 295° |
| 2026-04-13 22:06 | 62.09644 | -161.85516 | 18614 ft | 267 kts | 295° |
| 2026-04-13 22:07 | 62.10359 | -161.89110 | 18290 ft | 261 kts | 295° |
| 2026-04-13 22:07 | 62.11072 | -161.92690 | 17985 ft | 257 kts | 295° |
| 2026-04-13 22:07 | 62.11762 | -161.96159 | 17665 ft | 253 kts | 295° |
| 2026-04-13 22:07 | 62.12443 | -161.99594 | 17351 ft | 250 kts | 295° |
| 2026-04-13 22:08 | 62.13113 | -162.02971 | 17021 ft | 247 kts | 295° |
| 2026-04-13 22:08 | 62.13776 | -162.06326 | 16698 ft | 244 kts | 295° |
| 2026-04-13 22:08 | 62.14439 | -162.09683 | 16392 ft | 243 kts | 295° |
| 2026-04-13 22:08 | 62.15091 | -162.12978 | 16090 ft | 244 kts | 296° |
| 2026-04-13 22:09 | 62.15749 | -162.16304 | 15776 ft | 246 kts | 295° |
| 2026-04-13 22:09 | 62.16416 | -162.19694 | 15434 ft | 249 kts | 295° |
| 2026-04-13 22:09 | 62.17094 | -162.23140 | 15090 ft | 253 kts | 295° |
| 2026-04-13 22:09 | 62.17776 | -162.26614 | 14761 ft | 255 kts | 295° |
| 2026-04-13 22:10 | 62.18460 | -162.30118 | 14431 ft | 258 kts | 295° |
| 2026-04-13 22:10 | 62.19149 | -162.33681 | 14095 ft | 260 kts | 295° |
| 2026-04-13 22:10 | 62.19841 | -162.37253 | 13763 ft | 261 kts | 295° |
| 2026-04-13 22:10 | 62.20533 | -162.40811 | 13439 ft | 262 kts | 295° |
| 2026-04-13 22:11 | 62.21239 | -162.44444 | 13104 ft | 263 kts | 295° |
| 2026-04-13 22:11 | 62.21938 | -162.48053 | 12764 ft | 264 kts | 295° |
| 2026-04-13 22:11 | 62.22640 | -162.51683 | 12417 ft | 264 kts | 295° |
| 2026-04-13 22:11 | 62.23349 | -162.55348 | 12078 ft | 265 kts | 295° |
| 2026-04-13 22:12 | 62.24043 | -162.58951 | 11745 ft | 265 kts | 295° |
| 2026-04-13 22:12 | 62.24749 | -162.62613 | 11396 ft | 265 kts | 295° |
| 2026-04-13 22:12 | 62.25450 | -162.66269 | 11050 ft | 265 kts | 294° |
| 2026-04-13 22:12 | 62.26148 | -162.69911 | 10702 ft | 263 kts | 294° |
| 2026-04-13 22:13 | 62.26839 | -162.73529 | 10355 ft | 261 kts | 294° |
| 2026-04-13 22:13 | 62.27529 | -162.77136 | 10015 ft | 259 kts | 294° |
| 2026-04-13 22:13 | 62.28206 | -162.80693 | 9661 ft | 257 kts | 294° |
| 2026-04-13 22:13 | 62.28873 | -162.84190 | 9321 ft | 255 kts | 294° |
| 2026-04-13 22:14 | 62.29536 | -162.87680 | 8972 ft | 251 kts | 294° |
| 2026-04-13 22:14 | 62.30191 | -162.91122 | 8617 ft | 249 kts | 294° |
| 2026-04-13 22:14 | 62.30841 | -162.94574 | 8240 ft | 248 kts | 294° |
| 2026-04-13 22:14 | 62.31010 | -162.98273 | 7691 ft | 255 kts | 263° |
| 2026-04-13 22:15 | 62.30394 | -163.01807 | 7216 ft | 254 kts | 251° |
| 2026-04-13 22:15 | 62.29775 | -163.05333 | 6739 ft | 252 kts | 252° |
| 2026-04-13 22:15 | 62.29168 | -163.08841 | 6257 ft | 249 kts | 253° |
| 2026-04-13 22:15 | 62.28582 | -163.12309 | 5775 ft | 248 kts | 254° |
| 2026-04-13 22:16 | 62.28005 | -163.15729 | 5292 ft | 242 kts | 253° |
| 2026-04-13 22:16 | 62.27446 | -163.19049 | 4813 ft | 237 kts | 254° |
| 2026-04-13 22:16 | 62.26891 | -163.22345 | 4324 ft | 233 kts | 253° |
| 2026-04-13 22:16 | 62.26339 | -163.25565 | 3869 ft | 229 kts | 251° |
| 2026-04-13 22:17 | 62.25312 | -163.28099 | 3445 ft | 232 kts | 214° |
| 2026-04-13 22:17 | 62.23769 | -163.28818 | 3162 ft | 225 kts | 180° |
| 2026-04-13 22:17 | 62.22259 | -163.28751 | 2972 ft | 214 kts | 182° |
| 2026-04-13 22:17 | 62.20795 | -163.28799 | 2771 ft | 206 kts | 183° |
| 2026-04-13 22:18 | 62.19387 | -163.28894 | 2569 ft | 199 kts | 184° |
| 2026-04-13 22:18 | 62.18031 | -163.29007 | 2370 ft | 193 kts | 184° |
| 2026-04-13 22:18 | 62.16699 | -163.29126 | 2179 ft | 188 kts | 184° |
| 2026-04-13 22:18 | 62.15429 | -163.29234 | 2120 ft | 177 kts | 185° |
| 2026-04-13 22:19 | 62.14254 | -163.29338 | 2030 ft | 155 kts | 184° |
| 2026-04-13 22:19 | 62.13273 | -163.29419 | 1860 ft | 128 kts | 185° |
| 2026-04-13 22:19 | 62.12421 | -163.29446 | 1555 ft | 121 kts | 183° |
| 2026-04-13 22:19 | 62.11583 | -163.29472 | 1317 ft | 120 kts | 184° |
| 2026-04-13 22:20 | 62.10751 | -163.29573 | 1084 ft | 118 kts | 188° |
| 2026-04-13 22:20 | 62.09949 | -163.29727 | 853 ft | 118 kts | 187° |
| 2026-04-13 22:20 | 62.09140 | -163.29794 | 704 ft | 115 kts | 186° |
| 2026-04-13 22:20 | 62.08338 | -163.29881 | 596 ft | 115 kts | 186° |
| 2026-04-13 22:21 | 62.07531 | -163.29952 | 449 ft | 115 kts | 186° |
| 2026-04-13 22:21 | 62.06750 | -163.30025 | 334 ft | 105 kts | 185° |
| 2026-04-13 22:21 | 62.06219 | -163.30083 | 346 ft | 42 kts | 178° |
| 2026-04-13 22:21 | 62.06029 | -163.30045 | 351 ft | 22 kts | 148° |
| 2026-04-13 22:22 | 62.05921 | -163.29901 | 360 ft | 10 kts | 144° |
| 2026-04-13 22:22 | 62.05868 | -163.29814 | 367 ft | 8 kts | 140° |
| 2026-04-13 22:22 | 62.05827 | -163.29732 | 372 ft | 7 kts | 134° |
| 2026-04-13 22:22 | 62.05790 | -163.29684 | 375 ft | 2 kts | 175° |
| 2026-04-13 22:23 | 62.05789 | -163.29684 | 375 ft | 0 kts | 175° |